Time;durP1;ratioP1;P1;durP2;ratioP2;P2;SDS_P1;SDS_P2;PMS_P1;PMS_P2;Temp;Humidity;BMP_temperature;BMP_pressure;BME280_temperature;BME280_humidity;BME280_pressure;Samples;Min_cycle;Max_cycle;Signal;HPM_P1;HPM_P2
2022/06/24 00:01:58;;;;;;;3.53;2.63;;;22.60;43.70;;;;;;4161662;28;20225;-74
2022/06/24 00:04:00;;;;;;;3.67;2.50;;;22.60;44.00;;;;;;4163738;28;20709;-74
2022/06/24 00:06:02;;;;;;;3.60;2.30;;;22.60;44.20;;;;;;4161218;28;20217;-74
2022/06/24 00:08:07;;;;;;;2.47;2.27;;;22.50;44.60;;;;;;4161278;28;20687;-74
2022/06/24 00:10:12;;;;;;;2.97;2.30;;;22.50;44.60;;;;;;4165437;28;20655;-75
2022/06/24 00:12:17;;;;;;;4.27;2.50;;;22.50;45.00;;;;;;4166961;28;20230;-74
2022/06/24 00:14:19;;;;;;;2.40;2.20;;;22.40;45.10;;;;;;4170654;28;20230;-74
2022/06/24 00:16:21;;;;;;;3.10;2.63;;;22.40;45.30;;;;;;4169334;28;20288;-75
2022/06/24 00:18:23;;;;;;;3.07;2.23;;;22.40;45.40;;;;;;4167126;28;20293;-75
2022/06/24 00:20:25;;;;;;;2.87;2.40;;;22.30;45.80;;;;;;4162909;28;20225;-75
2022/06/24 00:22:30;;;;;;;2.63;2.20;;;22.30;46.10;;;;;;4163944;28;20710;-75
2022/06/24 00:24:32;;;;;;;2.83;2.30;;;22.30;46.40;;;;;;4162020;28;20604;-75
2022/06/24 00:26:39;;;;;;;4.13;2.30;;;22.20;46.30;;;;;;4163366;28;20211;-75
2022/06/24 00:28:42;;;;;;;5.80;2.30;;;22.20;46.30;;;;;;4161347;28;20239;-75
2022/06/24 00:30:46;;;;;;;3.67;2.23;;;22.10;46.40;;;;;;4161047;28;20224;-75
2022/06/24 00:32:47;;;;;;;3.43;2.47;;;22.10;47.10;;;;;;4160417;28;20236;-75
2022/06/24 00:35:02;;;;;;;2.70;2.10;;;22.10;47.00;;;;;;4158970;28;20238;-75
2022/06/24 00:37:22;;;;;;;3.03;2.60;;;22.00;47.80;;;;;;4162793;28;20590;-75
2022/06/24 00:39:35;;;;;;;2.70;2.27;;;22.00;47.30;;;;;;4159466;28;20593;-75
2022/06/24 00:41:37;;;;;;;2.30;2.07;;;21.90;47.80;;;;;;4162170;28;20223;-75
2022/06/24 00:43:40;;;;;;;2.47;2.20;;;21.90;48.00;;;;;;4162048;28;20235;-75
2022/06/24 00:45:49;;;;;;;3.30;2.20;;;21.80;48.10;;;;;;4162288;28;20223;-75
2022/06/24 00:47:52;;;;;;;3.07;2.10;;;21.80;47.80;;;;;;4159224;28;20559;-75
2022/06/24 00:49:59;;;;;;;2.60;2.20;;;21.70;47.90;;;;;;4159188;28;20207;-75
2022/06/24 00:52:07;;;;;;;2.77;2.27;;;21.70;47.80;;;;;;4158050;28;20223;-74
2022/06/24 00:54:11;;;;;;;2.47;2.00;;;21.70;48.10;;;;;;4159188;28;20226;-75
2022/06/24 00:56:18;;;;;;;2.33;1.73;;;21.70;48.10;;;;;;4161218;28;20654;-75
2022/06/24 00:58:20;;;;;;;2.57;1.93;;;21.60;48.30;;;;;;4157554;28;20651;-75
2022/06/24 01:01:11;;;;;;;3.03;2.27;;;21.60;48.50;;;;;;4162351;28;20255;-75
2022/06/24 01:04:04;;;;;;;2.77;2.30;;;21.60;48.90;;;;;;4160000;28;20718;-75
2022/06/24 01:06:56;;;;;;;2.23;2.00;;;21.50;49.20;;;;;;4155259;28;20220;-75
2022/06/24 01:09:48;;;;;;;2.83;2.03;;;21.50;48.80;;;;;;4159081;28;20199;-75
2022/06/24 01:12:39;;;;;;;2.17;1.90;;;21.50;48.80;;;;;;4161593;28;20281;-75
2022/06/24 01:15:31;;;;;;;4.07;2.07;;;21.50;48.90;;;;;;4156420;28;20207;-74
2022/06/24 01:18:25;;;;;;;2.93;2.07;;;21.40;49.30;;;;;;4156066;28;20584;-74
2022/06/24 01:21:16;;;;;;;2.10;1.90;;;21.40;49.40;;;;;;4159085;28;20230;-74
2022/06/24 01:24:10;;;;;;;3.40;2.10;;;21.30;48.90;;;;;;4164259;28;20298;-74
2022/06/24 01:27:02;;;;;;;2.17;1.80;;;21.30;49.00;;;;;;4157088;28;20210;-75
2022/06/24 01:29:55;;;;;;;2.70;1.90;;;21.30;49.30;;;;;;4159859;28;20210;-74
2022/06/24 01:32:46;;;;;;;2.50;2.03;;;21.30;49.50;;;;;;4157053;28;20211;-74
2022/06/24 01:35:38;;;;;;;2.30;1.97;;;21.20;50.20;;;;;;4158652;28;20211;-74
2022/06/24 01:38:31;;;;;;;2.67;2.13;;;21.20;50.20;;;;;;4157807;28;20302;-74
2022/06/24 01:41:22;;;;;;;2.30;1.97;;;21.10;50.00;;;;;;4154146;28;20605;-76
2022/06/24 01:44:14;;;;;;;3.63;1.87;;;21.10;50.80;;;;;;4156899;28;20230;-76
2022/06/24 01:47:06;;;;;;;2.20;1.87;;;21.10;50.90;;;;;;4160533;28;20221;-76
2022/06/24 01:49:59;;;;;;;2.23;1.73;;;21.00;50.90;;;;;;4157518;28;20217;-76
2022/06/24 01:52:50;;;;;;;3.37;1.90;;;21.00;51.50;;;;;;4159051;28;20228;-74
2022/06/24 03:46:02;;;;;;;3.23;1.93;;;20.20;59.30;;;;;;4166048;28;20188;-75
2022/06/24 03:48:04;;;;;;;5.30;2.13;;;20.20;60.30;;;;;;4163299;28;20206;-75
2022/06/24 03:50:07;;;;;;;2.53;2.10;;;20.20;61.00;;;;;;4162432;28;20210;-75
2022/06/24 03:52:09;;;;;;;4.20;2.17;;;20.20;61.60;;;;;;4161061;28;20267;-75
2022/06/24 03:54:11;;;;;;;3.33;2.00;;;20.20;61.50;;;;;;4164342;28;20230;-75
2022/06/24 03:56:16;;;;;;;3.13;2.13;;;20.20;62.80;;;;;;4163570;28;20217;-75
2022/06/24 03:58:18;;;;;;;2.30;2.10;;;20.20;63.10;;;;;;4157541;28;20214;-75
2022/06/24 04:00:21;;;;;;;3.80;2.27;;;20.20;62.90;;;;;;4160950;28;20228;-75
2022/06/24 04:02:24;;;;;;;4.57;1.93;;;20.10;63.40;;;;;;4161263;28;20206;-75
2022/06/24 04:04:26;;;;;;;2.23;1.90;;;20.10;64.00;;;;;;4162958;28;20228;-75
2022/06/24 04:06:28;;;;;;;3.17;1.90;;;20.10;64.80;;;;;;4162042;28;20884;-75
2022/06/24 04:08:30;;;;;;;2.63;2.37;;;20.10;65.50;;;;;;4162459;28;20759;-75
2022/06/24 04:10:32;;;;;;;2.73;2.40;;;20.10;65.70;;;;;;4161976;28;20687;-75
2022/06/24 04:12:34;;;;;;;4.73;2.10;;;20.10;65.90;;;;;;4161358;28;20214;-75
2022/06/24 04:16:55;;;;;;;2.33;2.03;;;20.10;67.80;;;;;;4158838;28;20389;-75
2022/06/24 04:18:59;;;;;;;2.90;2.23;;;20.10;68.50;;;;;;4161945;28;20291;-75
2022/06/24 04:21:00;;;;;;;2.00;1.80;;;20.10;68.70;;;;;;4162148;28;20227;-75
2022/06/24 04:23:02;;;;;;;2.33;2.13;;;20.10;69.70;;;;;;4164241;28;20305;-75
2022/06/24 04:25:05;;;;;;;2.53;2.00;;;20.10;69.90;;;;;;4163835;28;20625;-75
2022/06/24 04:27:08;;;;;;;4.67;2.30;;;20.10;69.30;;;;;;4160970;28;20217;-75
2022/06/24 04:29:10;;;;;;;2.20;2.00;;;20.10;70.20;;;;;;4163235;28;20209;-75
2022/06/24 04:31:13;;;;;;;2.40;2.20;;;20.10;71.20;;;;;;4161282;28;21299;-75
2022/06/24 04:33:15;;;;;;;2.27;2.00;;;20.10;72.40;;;;;;4159792;28;20262;-75
2022/06/24 04:35:18;;;;;;;2.80;2.20;;;20.10;72.40;;;;;;4161491;28;20297;-75
2022/06/24 04:37:20;;;;;;;2.57;2.10;;;20.10;73.70;;;;;;4158209;28;20234;-76
2022/06/24 04:39:22;;;;;;;3.20;2.00;;;20.10;73.40;;;;;;4174473;28;20491;-74
2022/06/24 04:41:23;;;;;;;2.10;1.90;;;20.10;73.70;;;;;;4161816;28;20281;-73
2022/06/24 04:43:25;;;;;;;2.20;2.00;;;20.10;73.90;;;;;;4162394;28;20288;-76
2022/06/24 04:45:27;;;;;;;2.63;2.17;;;20.10;73.60;;;;;;4160738;28;20238;-78
2022/06/24 04:47:29;;;;;;;5.47;2.40;;;20.10;75.30;;;;;;4161120;28;20305;-77
2022/06/24 04:49:33;;;;;;;4.17;2.80;;;20.10;75.80;;;;;;4161748;28;20204;-77
2022/06/24 04:51:36;;;;;;;4.47;2.30;;;20.10;76.80;;;;;;4160968;28;20256;-77
2022/06/24 04:53:38;;;;;;;2.87;2.37;;;20.10;76.80;;;;;;4158743;28;20270;-75
2022/06/24 04:55:40;;;;;;;3.20;2.40;;;20.10;76.80;;;;;;4160709;28;20209;-76
2022/06/24 04:57:42;;;;;;;3.07;2.50;;;20.20;76.10;;;;;;4161477;28;20280;-76
2022/06/24 04:59:44;;;;;;;4.83;2.97;;;20.20;77.30;;;;;;4161346;28;20698;-75
2022/06/24 05:01:46;;;;;;;3.73;2.93;;;20.20;77.40;;;;;;4156425;28;20270;-74
2022/06/24 05:03:48;;;;;;;4.13;2.97;;;20.20;76.80;;;;;;4160876;28;20218;-74
2022/06/24 05:05:50;;;;;;;2.80;2.30;;;20.20;77.00;;;;;;4155379;28;20235;-74
2022/06/24 05:07:53;;;;;;;3.20;2.60;;;20.20;77.60;;;;;;4151353;28;20212;-75
2022/06/24 05:09:55;;;;;;;3.83;2.47;;;20.20;78.10;;;;;;4158062;28;20256;-74
2022/06/24 05:11:57;;;;;;;3.10;2.30;;;20.30;79.20;;;;;;4157984;28;20295;-74
2022/06/24 05:14:03;;;;;;;3.57;2.30;;;20.30;78.30;;;;;;4157805;28;20318;-74
2022/06/24 05:16:07;;;;;;;2.53;2.20;;;20.20;77.80;;;;;;4158900;28;20220;-74
2022/06/24 05:18:09;;;;;;;2.67;2.13;;;20.30;78.50;;;;;;4154586;28;20208;-74
2022/06/24 05:20:11;;;;;;;3.43;2.40;;;20.30;78.80;;;;;;4154674;28;20215;-75
2022/06/24 05:22:13;;;;;;;2.20;2.00;;;20.30;80.50;;;;;;4153134;28;20777;-74
2022/06/24 05:24:17;;;;;;;3.13;2.23;;;20.30;80.70;;;;;;4154518;28;20213;-74
2022/06/24 05:26:19;;;;;;;3.70;2.23;;;20.40;80.50;;;;;;4154917;28;20230;-74
2022/06/24 05:28:21;;;;;;;2.53;2.03;;;20.40;80.80;;;;;;4160940;28;20699;-74
2022/06/24 05:30:23;;;;;;;3.83;2.30;;;20.40;81.10;;;;;;4158797;28;20226;-74
2022/06/24 05:32:25;;;;;;;2.50;2.30;;;20.40;80.90;;;;;;4155293;28;20210;-74
2022/06/24 05:34:27;;;;;;;3.03;2.10;;;20.50;80.70;;;;;;4154177;28;20804;-74
2022/06/24 05:36:29;;;;;;;3.20;2.13;;;20.50;80.60;;;;;;4151426;28;20713;-74
2022/06/24 05:38:31;;;;;;;2.40;2.20;;;20.50;81.00;;;;;;4155969;28;20199;-74
2022/06/24 05:40:35;;;;;;;4.27;2.40;;;20.50;81.20;;;;;;4150813;28;20251;-74
2022/06/24 05:42:37;;;;;;;2.53;2.20;;;20.60;81.50;;;;;;4151745;28;20203;-74
2022/06/24 05:44:38;;;;;;;3.43;2.50;;;20.60;81.70;;;;;;4150335;28;20709;-74
2022/06/24 05:46:41;;;;;;;3.17;2.30;;;20.60;81.30;;;;;;4153041;28;20631;-74
2022/06/24 05:48:43;;;;;;;2.70;2.10;;;20.70;82.00;;;;;;4153622;28;20227;-74
2022/06/24 05:50:45;;;;;;;3.40;2.23;;;20.70;81.20;;;;;;4153104;28;20237;-74
2022/06/24 05:55:07;;;;;;;2.67;2.30;;;20.80;81.20;;;;;;4155089;28;20240;-74
2022/06/24 05:57:10;;;;;;;3.20;2.40;;;20.80;81.80;;;;;;4175246;28;20213;-75
2022/06/24 05:59:12;;;;;;;2.57;2.33;;;20.80;82.00;;;;;;4156738;28;20799;-75
2022/06/24 06:01:14;;;;;;;2.93;2.30;;;20.90;81.60;;;;;;4155710;28;20723;-75
2022/06/24 06:03:16;;;;;;;3.17;2.30;;;20.90;81.50;;;;;;4151776;28;20293;-74
2022/06/24 06:05:18;;;;;;;3.43;2.10;;;20.90;80.40;;;;;;4150131;28;20247;-75
2022/06/24 06:07:21;;;;;;;3.00;2.20;;;21.00;79.30;;;;;;4154154;28;20203;-74
2022/06/24 06:09:23;;;;;;;4.33;2.17;;;21.00;78.90;;;;;;4154910;28;20213;-75
2022/06/24 06:11:26;;;;;;;3.47;2.20;;;21.10;78.00;;;;;;4155116;28;20227;-75
2022/06/24 06:13:30;;;;;;;4.07;2.50;;;21.10;77.00;;;;;;4153598;28;20200;-74
2022/06/24 06:15:32;;;;;;;2.87;2.57;;;21.10;75.90;;;;;;4153102;28;21236;-75
2022/06/24 06:17:33;;;;;;;5.10;2.73;;;21.20;75.80;;;;;;4155581;28;20744;-74
2022/06/24 06:19:35;;;;;;;3.53;2.40;;;21.30;75.50;;;;;;4156308;28;20211;-76
2022/06/24 06:21:37;;;;;;;2.53;2.33;;;21.30;74.70;;;;;;4156786;28;20236;-77
2022/06/24 06:23:40;;;;;;;4.90;2.10;;;21.30;74.30;;;;;;4158185;28;20214;-74
2022/06/24 06:25:42;;;;;;;3.20;2.13;;;21.30;74.00;;;;;;4156720;28;20211;-74
2022/06/24 06:27:44;;;;;;;2.70;2.30;;;21.40;74.30;;;;;;4159509;28;20211;-74
2022/06/24 06:29:47;;;;;;;4.03;2.80;;;21.40;74.60;;;;;;4151742;28;20283;-75
2022/06/24 06:31:50;;;;;;;3.87;2.87;;;21.50;75.30;;;;;;4168497;28;20837;-74
2022/06/24 06:33:52;;;;;;;3.37;2.40;;;21.50;74.80;;;;;;4150224;28;20318;-74
2022/06/24 06:36:03;;;;;;;4.30;2.47;;;21.60;75.20;;;;;;4153895;28;20211;-74
2022/06/24 06:38:05;;;;;;;3.47;2.27;;;21.60;75.20;;;;;;4152904;28;20205;-75
2022/06/24 06:40:08;;;;;;;3.30;2.37;;;21.70;73.80;;;;;;4152926;28;20207;-74
2022/06/24 06:42:10;;;;;;;3.67;2.17;;;21.70;73.30;;;;;;4155878;28;20265;-75
2022/06/24 06:44:12;;;;;;;3.30;2.17;;;21.80;72.40;;;;;;4156445;28;20639;-74
2022/06/24 06:46:15;;;;;;;4.27;2.27;;;21.80;71.60;;;;;;4150184;28;20319;-74
2022/06/24 06:48:17;;;;;;;2.63;2.07;;;21.90;69.90;;;;;;4151420;28;20293;-75
2022/06/24 06:50:19;;;;;;;2.83;2.30;;;21.90;69.10;;;;;;4157762;28;20230;-74
2022/06/24 06:52:23;;;;;;;3.80;2.00;;;22.00;67.90;;;;;;4156299;28;20203;-74
2022/06/24 06:54:31;;;;;;;2.53;2.00;;;22.10;67.30;;;;;;4156848;28;20303;-74
2022/06/24 06:56:36;;;;;;;2.73;2.10;;;22.20;66.50;;;;;;4154306;28;20226;-74
2022/06/24 06:58:38;;;;;;;4.30;2.60;;;22.20;65.00;;;;;;4155783;28;20221;-74
2022/06/24 07:00:40;;;;;;;3.83;2.50;;;22.30;64.10;;;;;;4151392;28;20598;-74
2022/06/24 07:02:44;;;;;;;6.03;2.53;;;22.40;63.60;;;;;;4151850;28;20253;-74
2022/06/24 07:04:46;;;;;;;4.00;2.13;;;22.40;63.00;;;;;;4151002;28;20200;-74
2022/06/24 07:06:48;;;;;;;2.43;2.10;;;22.50;62.80;;;;;;4148612;28;20211;-74
2022/06/24 07:08:50;;;;;;;3.50;1.83;;;22.50;63.90;;;;;;4153467;28;20217;-74
2022/06/24 07:10:52;;;;;;;2.70;2.00;;;22.60;64.20;;;;;;4156455;28;20224;-75
2022/06/24 07:12:54;;;;;;;3.03;2.00;;;22.70;61.70;;;;;;4152943;28;20762;-74
2022/06/24 07:14:56;;;;;;;2.40;1.90;;;22.70;60.60;;;;;;4157166;28;21155;-74
2022/06/24 07:16:57;;;;;;;2.10;1.90;;;22.80;59.60;;;;;;4160102;28;20632;-74
2022/06/24 07:19:01;;;;;;;2.20;1.60;;;22.80;60.30;;;;;;4158170;28;20213;-74
2022/06/24 07:21:04;;;;;;;2.80;2.03;;;22.90;58.90;;;;;;4159270;28;20628;-73
2022/06/24 07:23:06;;;;;;;2.33;1.90;;;22.90;58.30;;;;;;4158812;28;20296;-73
2022/06/24 07:25:08;;;;;;;2.40;1.70;;;23.00;57.20;;;;;;4158696;28;20217;-75
2022/06/24 07:27:11;;;;;;;3.37;1.83;;;23.10;56.60;;;;;;4158436;28;20214;-73
2022/06/24 07:29:13;;;;;;;2.40;1.90;;;23.20;56.20;;;;;;4163541;28;20210;-73
2022/06/24 07:31:16;;;;;;;3.00;1.90;;;23.30;55.90;;;;;;4158280;28;20236;-73
2022/06/24 07:33:18;;;;;;;2.17;1.57;;;23.40;53.30;;;;;;4159655;28;20219;-73
2022/06/24 07:35:21;;;;;;;2.57;1.70;;;23.40;52.70;;;;;;4160956;28;20589;-73
2022/06/24 07:37:23;;;;;;;2.20;1.80;;;23.50;52.10;;;;;;4157840;28;20206;-73
2022/06/24 07:39:26;;;;;;;2.27;1.37;;;23.60;49.70;;;;;;4159520;28;20751;-74
2022/06/24 07:41:28;;;;;;;3.40;1.77;;;23.70;49.20;;;;;;4152684;28;20346;-73
2022/06/24 07:43:30;;;;;;;2.47;1.50;;;23.90;45.70;;;;;;4175443;28;20305;-75
2022/06/24 07:45:31;;;;;;;1.93;1.53;;;24.00;45.90;;;;;;4156821;28;20204;-75
2022/06/24 07:47:34;;;;;;;2.17;1.80;;;24.00;45.70;;;;;;4156855;28;20207;-76
2022/06/24 07:49:36;;;;;;;4.13;1.70;;;24.10;44.40;;;;;;4159793;28;20699;-74
2022/06/24 07:51:40;;;;;;;1.80;1.47;;;24.20;43.10;;;;;;4156547;28;20335;-74
2022/06/24 07:53:43;;;;;;;3.70;1.20;;;24.30;42.20;;;;;;4154241;28;20204;-75
2022/06/24 07:58:04;;;;;;;1.87;1.20;;;24.40;41.40;;;;;;4155513;28;20206;-74
2022/06/24 08:00:07;;;;;;;2.00;1.30;;;24.50;41.40;;;;;;4149787;28;20677;-74
2022/06/24 08:02:09;;;;;;;2.20;1.27;;;24.60;41.00;;;;;;4159001;28;20250;-74
2022/06/24 08:04:11;;;;;;;1.30;1.03;;;24.60;40.00;;;;;;4150814;28;20676;-74
2022/06/24 08:06:13;;;;;;;2.43;1.30;;;24.70;40.60;;;;;;4155133;28;20207;-74
2022/06/24 08:08:17;;;;;;;1.30;1.10;;;24.80;39.50;;;;;;4156326;28;20212;-74
2022/06/24 08:10:18;;;;;;;1.77;1.37;;;24.90;39.20;;;;;;4171967;28;20266;-74
2022/06/24 08:12:20;;;;;;;2.40;1.40;;;25.00;38.80;;;;;;4159013;28;20210;-74
2022/06/24 08:14:23;;;;;;;3.20;1.30;;;25.10;38.30;;;;;;4156269;28;20434;-74
2022/06/24 08:16:25;;;;;;;2.67;1.80;;;25.20;37.20;;;;;;4157171;28;20695;-74
2022/06/24 08:18:27;;;;;;;2.00;1.33;;;25.30;37.30;;;;;;4157639;28;20553;-74
2022/06/24 08:20:29;;;;;;;1.77;1.40;;;25.40;37.20;;;;;;4154421;28;20226;-74
2022/06/24 08:22:31;;;;;;;2.67;1.40;;;25.50;37.20;;;;;;4157137;28;20288;-74
2022/06/24 08:24:35;;;;;;;2.43;1.47;;;25.60;36.80;;;;;;4152734;28;20204;-74
2022/06/24 08:26:37;;;;;;;2.23;1.70;;;25.70;36.20;;;;;;4153148;28;20239;-73
2022/06/24 08:28:39;;;;;;;2.83;1.87;;;25.80;36.00;;;;;;4159186;28;20265;-75
2022/06/24 08:30:41;;;;;;;2.93;1.70;;;25.90;35.70;;;;;;4157512;28;20234;-74
2022/06/24 08:32:43;;;;;;;5.93;1.70;;;25.90;35.70;;;;;;4153459;28;20584;-74
2022/06/24 08:34:44;;;;;;;2.57;1.40;;;26.10;35.90;;;;;;4157266;28;20227;-74
2022/06/24 08:36:46;;;;;;;2.37;1.50;;;26.10;35.90;;;;;;4160343;28;20273;-73
2022/06/24 08:38:48;;;;;;;2.43;1.40;;;26.20;36.00;;;;;;4154527;28;20816;-73
2022/06/24 08:40:55;;;;;;;2.13;1.43;;;26.30;36.10;;;;;;4159317;28;20719;-74
2022/06/24 08:42:58;;;;;;;1.37;1.20;;;26.30;36.00;;;;;;4156122;28;20325;-74
2022/06/24 08:45:01;;;;;;;2.17;1.60;;;26.40;36.00;;;;;;4153552;28;20214;-75
2022/06/24 08:47:03;;;;;;;2.37;1.30;;;26.50;35.80;;;;;;4154484;28;20207;-75
2022/06/24 08:49:06;;;;;;;3.20;1.60;;;26.50;35.50;;;;;;4150630;28;20573;-74
2022/06/24 08:51:08;;;;;;;2.93;1.40;;;26.60;35.60;;;;;;4156773;28;20237;-76
2022/06/24 08:53:11;;;;;;;3.80;1.50;;;26.70;35.70;;;;;;4151618;28;20199;-74
2022/06/24 08:55:17;;;;;;;1.90;1.50;;;26.70;36.00;;;;;;4153167;28;20219;-73
2022/06/24 08:57:20;;;;;;;1.47;1.33;;;26.90;35.80;;;;;;4153594;28;20203;-74
2022/06/24 08:59:22;;;;;;;2.37;1.40;;;26.90;35.70;;;;;;4157295;28;20639;-73
2022/06/24 09:01:24;;;;;;;3.00;1.87;;;27.00;35.70;;;;;;4156239;28;20266;-74
2022/06/24 09:03:26;;;;;;;2.60;1.70;;;27.10;35.60;;;;;;4155036;28;20211;-74
2022/06/24 09:05:29;;;;;;;3.70;1.60;;;27.10;35.70;;;;;;4156316;28;20247;-74
2022/06/24 09:07:31;;;;;;;1.90;1.50;;;27.20;35.50;;;;;;4153402;28;20298;-74
2022/06/24 09:09:33;;;;;;;2.90;1.50;;;27.30;35.20;;;;;;4156348;28;20286;-73
2022/06/24 09:11:39;;;;;;;1.90;1.70;;;27.30;35.20;;;;;;4169081;28;20757;-74
2022/06/24 09:13:44;;;;;;;4.10;1.80;;;27.40;35.10;;;;;;4152440;28;20242;-73
2022/06/24 09:15:52;;;;;;;2.43;1.40;;;27.40;35.20;;;;;;4154333;28;20318;-74
2022/06/24 09:17:55;;;;;;;2.63;1.60;;;27.50;35.20;;;;;;4137572;28;20864;-73
2022/06/24 09:20:05;;;;;;;1.83;1.67;;;27.50;35.60;;;;;;4152837;28;20215;-74
2022/06/24 09:22:07;;;;;;;2.93;1.57;;;27.60;35.70;;;;;;4153670;28;20203;-74
2022/06/24 09:24:10;;;;;;;3.13;1.80;;;27.70;35.80;;;;;;4152558;28;20218;-74
2022/06/24 09:26:12;;;;;;;2.60;1.40;;;27.70;36.30;;;;;;4155753;28;20207;-74
2022/06/24 09:28:21;;;;;;;2.03;1.40;;;27.80;35.70;;;;;;4159055;28;20238;-74
2022/06/24 09:30:35;;;;;;;2.27;1.70;;;27.90;35.60;;;;;;4156478;28;20349;-74
2022/06/24 09:32:49;;;;;;;1.70;1.40;;;28.00;35.50;;;;;;4172386;28;20769;-74
2022/06/24 09:35:06;;;;;;;1.70;1.40;;;28.10;35.50;;;;;;4157466;28;20302;-74
2022/06/24 09:37:08;;;;;;;3.53;1.80;;;28.20;35.50;;;;;;4150332;28;20214;-74
2022/06/24 09:39:12;;;;;;;3.60;1.60;;;28.30;35.20;;;;;;4150161;28;20675;-74
2022/06/24 09:41:14;;;;;;;2.47;1.80;;;28.40;35.30;;;;;;4157863;28;20317;-74
2022/06/24 09:43:15;;;;;;;2.37;1.80;;;28.40;34.80;;;;;;4151495;28;20227;-74
2022/06/24 09:45:18;;;;;;;1.77;1.50;;;28.50;35.60;;;;;;4148501;28;20295;-74
2022/06/24 09:47:24;;;;;;;2.47;1.53;;;28.50;35.40;;;;;;4151421;28;20204;-74
2022/06/24 09:49:26;;;;;;;2.63;1.63;;;28.60;35.00;;;;;;4159489;28;20226;-74
2022/06/24 09:51:29;;;;;;;2.10;1.70;;;28.60;34.50;;;;;;4153005;28;20219;-74
2022/06/24 09:53:35;;;;;;;2.77;1.60;;;28.70;34.50;;;;;;4158639;28;20291;-75
2022/06/24 09:55:38;;;;;;;3.37;1.70;;;28.80;34.50;;;;;;4155404;28;20222;-75
2022/06/24 09:57:40;;;;;;;3.30;1.63;;;28.90;34.50;;;;;;4158175;28;20211;-74
2022/06/24 10:02:20;;;;;;;1.60;1.50;;;29.10;34.70;;;;;;4122086;28;20275;-75
2022/06/24 10:04:25;;;;;;;2.80;1.70;;;29.20;34.90;;;;;;4120603;28;20213;-74
2022/06/24 10:06:29;;;;;;;4.30;1.80;;;29.30;34.50;;;;;;4115098;28;20259;-75
2022/06/24 10:08:34;;;;;;;2.88;1.85;;;29.40;34.90;;;;;;4154345;28;20780;-74
2022/06/24 10:10:37;;;;;;;3.30;2.03;;;29.50;34.50;;;;;;4151594;28;20231;-77
2022/06/24 10:12:44;;;;;;;2.50;1.73;;;29.60;33.80;;;;;;4157460;28;20222;-81
2022/06/24 10:14:47;;;;;;;5.65;1.90;;;29.70;33.40;;;;;;4153371;28;20738;-75
2022/06/24 10:16:50;;;;;;;8.95;3.22;;;29.80;33.50;;;;;;4155631;28;20211;-76
2022/06/24 10:18:53;;;;;;;12.10;3.70;;;29.80;39.80;;;;;;4155369;28;20226;-77
2022/06/24 10:21:00;;;;;;;6.30;3.67;;;29.70;43.90;;;;;;4157805;28;20269;-79
2022/06/24 10:23:02;;;;;;;8.88;4.03;;;29.60;44.80;;;;;;4172896;28;20301;-76
2022/06/24 10:25:04;;;;;;;6.95;3.80;;;29.30;46.90;;;;;;4159241;28;20585;-80
2022/06/24 10:27:06;;;;;;;5.75;3.97;;;29.30;48.60;;;;;;4162765;28;20698;-78
2022/06/24 10:29:19;;;;;;;8.10;3.50;;;29.20;49.60;;;;;;4161161;28;20210;-80
2022/06/24 10:31:21;;;;;;;4.38;3.63;;;29.10;50.90;;;;;;4159808;28;20223;-78
2022/06/24 10:33:26;;;;;;;5.18;3.58;;;29.10;52.50;;;;;;4153926;28;20239;-78
2022/06/24 10:35:48;;;;;;;5.40;3.93;;;28.90;54.00;;;;;;4155124;28;20222;-79
2022/06/24 10:37:54;;;;;;;7.00;3.60;;;28.80;54.60;;;;;;4157206;28;20315;-78
2022/06/24 10:39:59;;;;;;;5.03;3.80;;;28.60;55.20;;;;;;4162123;28;20256;-79
2022/06/24 10:42:03;;;;;;;4.43;3.17;;;28.40;56.30;;;;;;4154497;28;20819;-77
2022/06/24 10:44:23;;;;;;;6.23;3.53;;;28.30;57.40;;;;;;4151955;28;20774;-79
2022/06/24 10:46:25;;;;;;;5.27;3.53;;;28.30;57.70;;;;;;4154312;28;20203;-77
2022/06/24 10:48:47;;;;;;;8.13;3.70;;;28.20;57.60;;;;;;4155710;28;20583;-77
2022/06/24 10:51:13;;;;;;;6.93;3.73;;;28.00;58.90;;;;;;4150575;28;20223;-77
2022/06/24 10:53:16;;;;;;;4.83;3.33;;;27.80;62.30;;;;;;4160704;28;20245;-77
2022/06/24 10:55:42;;;;;;;5.30;3.47;;;27.70;62.70;;;;;;4161032;28;20208;-76
2022/06/24 10:57:45;;;;;;;4.77;3.37;;;27.60;66.90;;;;;;4145554;28;20315;-76
2022/06/24 10:59:47;;;;;;;6.13;3.90;;;27.50;72.10;;;;;;4163808;28;20199;-77
2022/06/24 11:01:50;;;;;;;6.67;4.20;;;27.50;76.50;;;;;;4159402;28;20234;-76
2022/06/24 11:03:53;;;;;;;4.87;3.50;;;27.30;79.10;;;;;;4159592;28;20653;-75
2022/06/24 11:05:55;;;;;;;7.03;3.63;;;27.40;79.00;;;;;;4160287;28;20677;-74
2022/06/24 11:07:57;;;;;;;6.40;3.33;;;27.30;75.30;;;;;;4155632;28;20270;-75
2022/06/24 11:10:01;;;;;;;4.23;3.17;;;27.30;74.80;;;;;;4151936;28;20302;-74
2022/06/24 11:12:04;;;;;;;3.77;3.00;;;27.20;75.20;;;;;;4158409;28;20215;-74
2022/06/24 11:14:24;;;;;;;5.10;3.40;;;27.20;75.60;;;;;;4160314;28;20219;-74
2022/06/24 11:16:29;;;;;;;5.97;3.40;;;27.20;79.80;;;;;;4160632;28;20797;-74
2022/06/24 11:18:33;;;;;;;4.50;3.37;;;27.10;82.40;;;;;;4153872;28;20665;-74
2022/06/24 11:20:38;;;;;;;4.60;3.70;;;27.10;90.40;;;;;;4160142;28;20226;-74
2022/06/24 11:22:43;;;;;;;5.07;3.47;;;27.10;88.70;;;;;;4161786;28;20242;-74
2022/06/24 11:24:48;;;;;;;5.90;3.50;;;27.10;90.50;;;;;;4156650;28;20207;-74
2022/06/24 11:27:09;;;;;;;4.40;3.73;;;27.10;94.40;;;;;;4157998;28;20758;-76
2022/06/24 11:29:10;;;;;;;4.77;3.97;;;26.90;89.30;;;;;;4155764;28;20636;-74
2022/06/24 11:31:18;;;;;;;3.87;3.47;;;26.90;89.10;;;;;;4159170;28;20302;-76
2022/06/24 11:33:21;;;;;;;5.90;3.80;;;26.80;90.20;;;;;;4159998;28;20278;-76
2022/06/24 11:35:24;;;;;;;5.47;3.80;;;26.80;90.30;;;;;;4161433;28;20237;-74
2022/06/24 11:37:26;;;;;;;4.60;3.50;;;26.70;91.60;;;;;;4157867;28;20592;-76
2022/06/24 11:39:33;;;;;;;5.73;2.83;;;26.60;89.20;;;;;;4160530;28;20269;-75
2022/06/24 11:41:36;;;;;;;5.10;3.10;;;26.60;87.10;;;;;;4159748;28;20609;-75
2022/06/24 11:43:40;;;;;;;5.03;2.20;;;26.60;86.30;;;;;;4158267;28;20233;-75
2022/06/24 11:45:43;;;;;;;4.27;2.20;;;26.50;79.00;;;;;;4158111;28;20431;-75
2022/06/24 11:47:48;;;;;;;4.20;2.10;;;26.40;79.30;;;;;;4155499;28;20240;-75
2022/06/24 11:49:50;;;;;;;3.57;1.90;;;26.40;81.70;;;;;;4176319;28;20218;-76
2022/06/24 11:51:51;;;;;;;4.03;2.20;;;26.30;82.60;;;;;;4155486;28;20226;-74
2022/06/24 11:53:57;;;;;;;4.57;2.30;;;26.10;87.30;;;;;;4151731;28;20347;-74
2022/06/24 11:55:59;;;;;;;3.90;2.67;;;26.10;89.90;;;;;;4155242;28;20260;-74
2022/06/24 11:58:03;;;;;;;5.17;3.10;;;26.00;92.50;;;;;;4155221;28;20214;-76
2022/06/24 12:00:08;;;;;;;5.40;3.30;;;25.80;94.40;;;;;;4159372;28;20250;-75
2022/06/24 12:02:14;;;;;;;6.53;3.50;;;25.60;97.00;;;;;;4154371;28;20734;-75
2022/06/24 12:04:17;;;;;;;8.67;3.90;;;25.50;97.00;;;;;;4153307;28;20203;-76
2022/06/24 12:06:20;;;;;;;6.53;3.73;;;25.30;98.60;;;;;;4158206;28;20759;-77
2022/06/24 12:08:25;;;;;;;6.63;3.37;;;25.30;99.30;;;;;;4155317;28;20561;-76
2022/06/24 12:10:27;;;;;;;5.13;3.60;;;25.00;99.90;;;;;;4155963;28;20319;-75
2022/06/24 12:12:29;;;;;;;8.20;3.80;;;24.90;99.90;;;;;;4152245;28;20759;-76
2022/06/24 12:14:30;;;;;;;5.57;3.43;;;24.90;99.90;;;;;;4155352;28;20733;-76
2022/06/24 12:16:59;;;;;;;5.83;4.20;;;24.90;99.90;;;;;;4157507;28;20233;-77
2022/06/24 12:19:08;;;;;;;9.40;4.10;;;24.80;99.90;;;;;;4153784;28;20286;-76
2022/06/24 12:21:10;;;;;;;7.30;4.00;;;24.40;99.90;;;;;;4153099;28;20768;-75
2022/06/24 12:23:17;;;;;;;6.07;4.40;;;24.00;99.90;;;;;;4153656;28;20587;-76
2022/06/24 12:25:19;;;;;;;5.03;4.40;;;23.40;99.90;;;;;;4150879;28;20297;-76
2022/06/24 12:27:21;;;;;;;7.60;4.90;;;23.00;99.90;;;;;;4155612;28;20291;-77
2022/06/24 12:29:27;;;;;;;6.37;4.30;;;22.80;99.90;;;;;;4155026;28;20219;-77
2022/06/24 12:31:29;;;;;;;6.93;4.80;;;22.50;99.90;;;;;;4150822;28;20235;-77
2022/06/24 12:33:35;;;;;;;10.77;5.43;;;22.40;99.90;;;;;;4158723;28;20291;-77
2022/06/24 12:35:38;;;;;;;8.07;5.33;;;22.30;99.90;;;;;;4154367;28;20243;-77
2022/06/24 12:37:52;;;;;;;6.70;4.90;;;22.30;99.90;;;;;;4170954;28;20611;-77
2022/06/24 12:39:54;;;;;;;7.27;4.90;;;22.40;99.90;;;;;;4156179;28;20231;-77
2022/06/24 12:41:56;;;;;;;9.50;5.33;;;22.40;99.90;;;;;;4157989;28;20753;-77
2022/06/24 12:44:00;;;;;;;7.33;5.20;;;22.40;99.90;;;;;;4153158;28;20204;-77
2022/06/24 12:46:04;;;;;;;7.43;4.70;;;22.40;99.90;;;;;;4157627;28;20211;-75
2022/06/24 12:52:47;;;;;;;8.60;5.30;;;22.30;99.90;;;;;;4154576;28;20246;-76
2022/06/24 12:54:49;;;;;;;8.37;5.57;;;22.40;99.90;;;;;;4154737;28;20204;-75
2022/06/24 12:56:52;;;;;;;6.63;5.27;;;22.40;99.90;;;;;;4152496;28;20238;-75
2022/06/24 12:58:54;;;;;;;7.00;4.97;;;22.50;99.90;;;;;;4156713;28;20211;-75
2022/06/24 13:00:56;;;;;;;7.20;5.00;;;22.60;99.90;;;;;;4156391;28;20231;-75
2022/06/24 13:02:59;;;;;;;7.83;5.77;;;22.70;99.90;;;;;;4159196;28;20209;-75
2022/06/24 13:05:01;;;;;;;8.17;5.10;;;22.80;99.90;;;;;;4159387;28;20495;-75
2022/06/24 13:07:06;;;;;;;8.20;5.23;;;22.90;99.90;;;;;;4156389;28;20701;-75